Time;durP1;ratioP1;P1;durP2;ratioP2;P2;SDS_P1;SDS_P2;PMS_P1;PMS_P2;Temp;Humidity;BMP_temperature;BMP_pressure;BME280_temperature;BME280_humidity;BME280_pressure;Samples;Min_cycle;Max_cycle;Signal;HPM_P1;HPM_P2
2022/03/03 00:01:58;;;;;;;39.45;17.98;;;;;;;;;;5063469;28;20523;-57
2022/03/03 00:04:23;;;;;;;37.50;17.25;;;;;;;;;;5060886;28;20028;-56
2022/03/03 00:06:49;;;;;;;39.80;17.30;;;;;;;;;;5060687;28;20032;-57
2022/03/03 00:09:14;;;;;;;42.00;18.17;;;;;;;;;;5058233;28;20043;-57
2022/03/03 00:11:40;;;;;;;45.85;19.35;;;;;;;;;;5061007;28;20057;-58
2022/03/03 00:14:05;;;;;;;34.88;17.17;;;;;;;;;;5061869;28;20032;-57
2022/03/03 00:16:31;;;;;;;40.33;18.00;;;;;;;;;;5056335;28;20128;-57
2022/03/03 00:18:56;;;;;;;37.42;17.25;;;;;;;;;;5056661;28;20031;-58
2022/03/03 00:21:22;;;;;;;40.92;17.08;;;;;;;;;;5062365;28;20452;-57
2022/03/03 00:23:47;;;;;;;38.03;17.90;;;;;;;;;;5066596;28;20123;-58
2022/03/03 00:26:13;;;;;;;34.88;17.00;;;;;;;;;;5060462;28;20016;-58
2022/03/03 00:28:39;;;;;;;35.08;16.27;;;;;;;;;;5052100;28;20044;-57
2022/03/03 00:31:05;;;;;;;38.30;17.27;;;;;;;;;;5056008;28;20025;-57
2022/03/03 00:33:30;;;;;;;38.90;18.15;;;;;;;;;;5054667;28;20040;-57
2022/03/03 00:35:56;;;;;;;41.72;18.50;;;;;;;;;;5055046;28;20041;-57
2022/03/03 00:38:21;;;;;;;42.63;19.08;;;;;;;;;;5061788;28;20032;-58
2022/03/03 00:40:47;;;;;;;40.97;18.73;;;;;;;;;;5059496;28;20103;-57
2022/03/03 00:43:12;;;;;;;39.60;18.13;;;;;;;;;;5056882;28;20440;-57
2022/03/03 00:45:38;;;;;;;37.83;17.50;;;;;;;;;;5057274;28;20093;-58
2022/03/03 00:48:04;;;;;;;40.42;18.08;;;;;;;;;;5064977;28;20024;-58
2022/03/03 00:50:30;;;;;;;36.08;17.13;;;;;;;;;;5059840;28;20028;-57
2022/03/03 00:52:55;;;;;;;35.75;16.92;;;;;;;;;;5063196;28;20025;-57
2022/03/03 00:55:21;;;;;;;35.03;17.65;;;;;;;;;;5052907;28;20025;-56
2022/03/03 00:57:46;;;;;;;38.65;17.08;;;;;;;;;;5054542;28;20021;-57
2022/03/03 01:00:12;;;;;;;40.00;17.83;;;;;;;;;;5061716;28;20485;-56
2022/03/03 01:02:38;;;;;;;43.38;17.38;;;;;;;;;;5059918;28;20043;-58
2022/03/03 01:05:04;;;;;;;42.78;18.52;;;;;;;;;;5057440;28;20021;-57
2022/03/03 01:07:30;;;;;;;40.95;17.17;;;;;;;;;;5057862;28;20032;-58
2022/03/03 01:09:55;;;;;;;36.42;17.00;;;;;;;;;;5058166;28;20119;-57
2022/03/03 01:12:21;;;;;;;39.78;17.25;;;;;;;;;;5055047;28;20400;-57
2022/03/03 01:14:47;;;;;;;41.03;17.83;;;;;;;;;;5055306;28;20024;-57
2022/03/03 01:17:13;;;;;;;35.17;16.73;;;;;;;;;;5054776;28;20036;-58
2022/03/03 01:19:39;;;;;;;41.53;16.85;;;;;;;;;;5053974;28;20535;-58
2022/03/03 01:22:05;;;;;;;40.45;17.63;;;;;;;;;;5062422;28;20041;-57
2022/03/03 01:24:31;;;;;;;39.13;17.83;;;;;;;;;;5056521;28;20452;-58
2022/03/03 01:26:57;;;;;;;39.15;17.23;;;;;;;;;;5055547;28;20114;-56
2022/03/03 01:29:22;;;;;;;38.88;16.63;;;;;;;;;;5056568;28;20447;-57
2022/03/03 01:31:47;;;;;;;39.08;16.83;;;;;;;;;;5059628;28;20048;-57
2022/03/03 01:34:13;;;;;;;40.70;18.10;;;;;;;;;;5049871;28;20032;-58
2022/03/03 01:36:39;;;;;;;39.33;18.23;;;;;;;;;;5059667;28;20419;-57
2022/03/03 01:39:05;;;;;;;40.00;18.45;;;;;;;;;;5060127;28;20059;-56
2022/03/03 01:41:30;;;;;;;42.50;18.50;;;;;;;;;;5057083;28;20132;-57
2022/03/03 01:43:56;;;;;;;40.92;17.85;;;;;;;;;;5056428;28;20103;-56
2022/03/03 01:46:21;;;;;;;39.83;15.75;;;;;;;;;;5058219;28;20031;-57
2022/03/03 01:48:47;;;;;;;39.88;16.92;;;;;;;;;;5063184;28;20116;-57
2022/03/03 01:51:12;;;;;;;35.55;17.70;;;;;;;;;;5061415;28;20021;-55
2022/03/03 01:53:38;;;;;;;37.15;17.05;;;;;;;;;;5061250;28;20066;-57
2022/03/03 01:56:04;;;;;;;39.25;16.15;;;;;;;;;;5058209;28;20411;-57
2022/03/03 01:58:30;;;;;;;44.67;18.33;;;;;;;;;;5067388;28;20111;-57
2022/03/03 02:00:56;;;;;;;42.45;17.17;;;;;;;;;;5060965;28;20590;-57
2022/03/03 02:03:21;;;;;;;40.85;17.77;;;;;;;;;;5063386;28;20115;-57
2022/03/03 02:05:47;;;;;;;43.08;16.83;;;;;;;;;;5062149;28;20033;-57
2022/03/03 02:08:13;;;;;;;44.80;18.17;;;;;;;;;;5059191;28;20036;-54
2022/03/03 02:10:39;;;;;;;38.33;17.00;;;;;;;;;;5062695;28;20392;-56
2022/03/03 02:13:05;;;;;;;35.00;17.02;;;;;;;;;;5061196;28;20034;-56
2022/03/03 02:15:31;;;;;;;39.63;16.48;;;;;;;;;;5057657;28;20032;-57
2022/03/03 02:17:56;;;;;;;41.42;17.60;;;;;;;;;;5058920;28;20554;-57
2022/03/03 02:20:24;;;;;;;43.30;18.10;;;;;;;;;;5064613;28;20029;-57
2022/03/03 02:22:51;;;;;;;38.85;16.55;;;;;;;;;;5054842;28;20514;-57
2022/03/03 02:25:17;;;;;;;37.22;16.80;;;;;;;;;;5065122;28;20115;-58
2022/03/03 02:27:44;;;;;;;40.47;17.23;;;;;;;;;;5059472;28;20033;-58
2022/03/03 02:30:15;;;;;;;36.85;15.43;;;;;;;;;;5065916;28;20103;-57
2022/03/03 02:32:40;;;;;;;40.78;16.05;;;;;;;;;;5059661;28;20060;-57
2022/03/03 02:35:07;;;;;;;42.03;16.30;;;;;;;;;;5054232;28;20435;-57
2022/03/03 02:37:37;;;;;;;38.85;16.98;;;;;;;;;;5057145;28;20510;-58
2022/03/03 02:40:06;;;;;;;39.97;16.65;;;;;;;;;;5059249;28;20381;-58
2022/03/03 02:42:31;;;;;;;38.35;16.00;;;;;;;;;;5061840;28;20412;-58
2022/03/03 02:44:56;;;;;;;37.22;15.70;;;;;;;;;;5059131;28;20032;-57
2022/03/03 02:47:22;;;;;;;35.67;16.42;;;;;;;;;;5061554;28;20025;-57
2022/03/03 02:49:47;;;;;;;43.42;19.20;;;;;;;;;;5055994;28;20515;-54
2022/03/03 02:52:13;;;;;;;50.38;22.10;;;;;;;;;;5062809;28;20516;-57
2022/03/03 02:54:38;;;;;;;57.03;23.77;;;;;;;;;;5060780;28;20120;-57
2022/03/03 02:59:48;;;;;;;62.47;21.92;;;;;;;;;;5061957;28;20050;-57
2022/03/03 03:02:14;;;;;;;57.53;22.45;;;;;;;;;;5062372;28;20473;-58
2022/03/03 03:04:40;;;;;;;53.50;22.02;;;;;;;;;;5060684;28;20024;-58
2022/03/03 03:07:06;;;;;;;51.45;22.02;;;;;;;;;;5061270;28;20032;-57
2022/03/03 03:09:31;;;;;;;54.97;22.67;;;;;;;;;;5060814;28;20020;-57
2022/03/03 03:11:56;;;;;;;48.03;21.15;;;;;;;;;;5062485;28;20396;-56
2022/03/03 03:14:22;;;;;;;49.90;22.02;;;;;;;;;;5059915;28;20017;-57
2022/03/03 03:16:47;;;;;;;48.13;20.42;;;;;;;;;;5066029;28;20085;-58
2022/03/03 03:19:13;;;;;;;52.30;20.60;;;;;;;;;;5059667;28;20040;-57
2022/03/03 03:21:38;;;;;;;44.83;20.23;;;;;;;;;;5058860;28;20040;-57
2022/03/03 03:24:04;;;;;;;56.80;22.08;;;;;;;;;;5062882;28;20032;-57
2022/03/03 03:26:29;;;;;;;53.63;21.10;;;;;;;;;;5058911;28;20020;-57
2022/03/03 03:28:55;;;;;;;53.33;20.65;;;;;;;;;;5067600;28;20067;-57
2022/03/03 03:31:21;;;;;;;52.15;21.92;;;;;;;;;;5059481;28;20460;-58
2022/03/03 03:33:46;;;;;;;52.65;22.05;;;;;;;;;;5055957;28;20047;-56
2022/03/03 03:36:12;;;;;;;48.55;21.02;;;;;;;;;;5065641;28;20487;-57
2022/03/03 03:38:37;;;;;;;50.05;22.38;;;;;;;;;;5064657;28;20103;-57
2022/03/03 03:41:03;;;;;;;52.10;21.35;;;;;;;;;;5058290;28;20070;-57
2022/03/03 03:43:28;;;;;;;54.45;21.45;;;;;;;;;;5053763;28;20055;-58
2022/03/03 03:45:54;;;;;;;53.42;21.00;;;;;;;;;;5062083;28;20032;-53
2022/03/03 03:48:19;;;;;;;52.90;22.38;;;;;;;;;;5063836;28;20032;-57
2022/03/03 03:50:45;;;;;;;56.65;23.25;;;;;;;;;;5065121;28;20024;-58
2022/03/03 03:53:10;;;;;;;55.33;22.55;;;;;;;;;;5058689;28;20056;-57
2022/03/03 03:55:36;;;;;;;51.00;22.52;;;;;;;;;;5062692;28;20033;-56
2022/03/03 03:58:02;;;;;;;50.10;20.33;;;;;;;;;;5060732;28;20111;-57
2022/03/03 04:00:28;;;;;;;48.88;20.15;;;;;;;;;;5064219;28;20047;-57
2022/03/03 04:02:54;;;;;;;52.40;21.98;;;;;;;;;;5062281;28;20031;-55
2022/03/03 04:05:19;;;;;;;55.22;22.42;;;;;;;;;;5063857;28;20048;-54
2022/03/03 04:07:45;;;;;;;51.30;20.35;;;;;;;;;;5057425;28;20024;-57
2022/03/03 04:10:11;;;;;;;55.97;21.10;;;;;;;;;;5056872;28;20021;-56
2022/03/03 04:12:37;;;;;;;51.08;21.00;;;;;;;;;;5061367;28;20028;-54
2022/03/03 04:15:03;;;;;;;48.47;20.90;;;;;;;;;;5061895;28;20032;-57
2022/03/03 04:17:28;;;;;;;51.38;20.33;;;;;;;;;;5059485;28;20025;-57
2022/03/03 04:19:54;;;;;;;49.45;20.75;;;;;;;;;;5056253;28;20396;-58
2022/03/03 04:22:20;;;;;;;50.15;21.02;;;;;;;;;;5062171;28;20036;-58
2022/03/03 04:24:46;;;;;;;43.55;19.90;;;;;;;;;;5055544;28;20029;-57
2022/03/03 04:27:11;;;;;;;51.00;21.45;;;;;;;;;;5065239;28;20466;-57
2022/03/03 04:29:37;;;;;;;62.25;21.90;;;;;;;;;;5065068;28;20081;-57
2022/03/03 04:32:03;;;;;;;68.82;24.75;;;;;;;;;;5059466;28;20097;-57
2022/03/03 04:34:28;;;;;;;52.75;20.58;;;;;;;;;;5051830;28;20052;-57
2022/03/03 04:36:54;;;;;;;48.67;20.00;;;;;;;;;;5061545;28;20674;-56
2022/03/03 04:39:19;;;;;;;49.75;20.20;;;;;;;;;;5055288;28;20028;-57
2022/03/03 04:41:45;;;;;;;51.30;19.85;;;;;;;;;;5053001;28;20029;-57
2022/03/03 04:44:10;;;;;;;48.45;19.75;;;;;;;;;;5059647;28;20128;-57
2022/03/03 04:46:36;;;;;;;46.63;18.80;;;;;;;;;;5059034;28;20021;-56
2022/03/03 04:49:02;;;;;;;58.85;21.27;;;;;;;;;;5054280;28;20107;-56
2022/03/03 04:51:28;;;;;;;46.00;18.42;;;;;;;;;;5055319;28;20027;-55
2022/03/03 04:53:54;;;;;;;47.67;20.30;;;;;;;;;;5059228;28;20060;-56
2022/03/03 04:56:19;;;;;;;57.55;22.85;;;;;;;;;;5055836;28;20479;-57
2022/03/03 04:58:45;;;;;;;49.47;19.30;;;;;;;;;;5060948;28;20116;-57
2022/03/03 05:01:11;;;;;;;46.95;19.00;;;;;;;;;;5058230;28;20388;-54
2022/03/03 05:03:37;;;;;;;48.42;18.52;;;;;;;;;;5060396;28;20029;-56
2022/03/03 05:06:03;;;;;;;45.05;18.67;;;;;;;;;;5055608;28;20041;-58
2022/03/03 05:08:29;;;;;;;49.83;20.35;;;;;;;;;;5060459;28;20025;-56
2022/03/03 05:10:54;;;;;;;49.95;19.70;;;;;;;;;;5057179;28;20377;-55
2022/03/03 05:13:20;;;;;;;46.85;17.42;;;;;;;;;;5057516;28;20237;-58
2022/03/03 05:15:46;;;;;;;46.47;18.88;;;;;;;;;;5059896;28;20098;-55
2022/03/03 05:18:12;;;;;;;50.50;20.05;;;;;;;;;;5053715;28;20021;-56
2022/03/03 05:20:38;;;;;;;52.85;19.70;;;;;;;;;;5054947;28;20028;-56
2022/03/03 05:23:04;;;;;;;47.83;19.45;;;;;;;;;;5062750;28;20028;-55
2022/03/03 05:25:29;;;;;;;50.70;20.40;;;;;;;;;;5059647;28;20026;-56
2022/03/03 05:27:54;;;;;;;53.80;20.10;;;;;;;;;;5060311;28;20432;-54
2022/03/03 05:30:20;;;;;;;49.60;18.95;;;;;;;;;;5056798;28;20463;-57
2022/03/03 05:32:48;;;;;;;45.13;18.88;;;;;;;;;;5062370;28;20025;-56
2022/03/03 05:35:14;;;;;;;46.50;18.52;;;;;;;;;;5062581;28;20052;-56
2022/03/03 05:37:40;;;;;;;52.50;19.13;;;;;;;;;;5056799;28;20045;-56
2022/03/03 05:40:05;;;;;;;50.60;20.45;;;;;;;;;;5057634;28;20025;-52
2022/03/03 05:42:31;;;;;;;62.92;21.75;;;;;;;;;;5061401;28;20453;-57
2022/03/03 05:44:56;;;;;;;51.15;20.52;;;;;;;;;;5062245;28;20028;-54
2022/03/03 05:47:27;;;;;;;45.92;17.02;;;;;;;;;;5060000;28;20028;-55
2022/03/03 05:49:54;;;;;;;52.92;20.23;;;;;;;;;;5057261;28;20025;-56
2022/03/03 05:52:20;;;;;;;61.78;23.38;;;;;;;;;;5061112;28;20024;-57
2022/03/03 05:54:45;;;;;;;58.35;19.75;;;;;;;;;;5057996;28;20032;-56
2022/03/03 05:57:18;;;;;;;46.88;17.05;;;;;;;;;;5059102;28;20032;-56
2022/03/03 05:59:45;;;;;;;44.28;16.67;;;;;;;;;;5063450;28;20326;-57
2022/03/03 06:02:11;;;;;;;36.72;16.00;;;;;;;;;;5063694;28;20120;-57
2022/03/03 06:04:40;;;;;;;38.15;15.95;;;;;;;;;;5065030;28;20116;-57
2022/03/03 06:07:10;;;;;;;46.05;16.63;;;;;;;;;;5064179;28;20401;-56
2022/03/03 06:09:36;;;;;;;;;;;;;;;;;;5059615;28;20120;-57
2022/03/03 06:12:06;;;;;;;39.38;15.50;;;;;;;;;;5067857;28;19909;-57
2022/03/03 06:14:45;;;;;;;39.38;16.48;;;;;;;;;;5064817;28;20132;-57
2022/03/03 06:17:10;;;;;;;46.38;18.38;;;;;;;;;;5065257;28;20037;-54
2022/03/03 06:19:41;;;;;;;41.90;16.17;;;;;;;;;;5061418;28;20040;-58
2022/03/03 06:22:08;;;;;;;45.63;16.77;;;;;;;;;;5065818;28;20056;-57
2022/03/03 06:24:33;;;;;;;53.50;18.52;;;;;;;;;;5060948;28;20086;-56
2022/03/03 06:26:59;;;;;;;58.38;22.63;;;;;;;;;;5064513;28;20053;-56
2022/03/03 06:29:24;;;;;;;75.55;25.67;;;;;;;;;;5060637;28;20112;-60
2022/03/03 06:31:50;;;;;;;79.93;28.73;;;;;;;;;;5062824;28;20415;-57
2022/03/03 06:34:15;;;;;;;94.53;32.72;;;;;;;;;;5064820;28;20033;-57
2022/03/03 06:36:41;;;;;;;73.82;28.15;;;;;;;;;;5066856;28;20020;-56
2022/03/03 06:39:06;;;;;;;72.60;27.50;;;;;;;;;;5064373;28;20029;-57
2022/03/03 06:41:31;;;;;;;84.82;29.60;;;;;;;;;;5066110;28;20452;-57
2022/03/03 06:43:57;;;;;;;66.85;24.45;;;;;;;;;;5068268;28;20013;-57
2022/03/03 06:46:23;;;;;;;68.45;25.50;;;;;;;;;;5065256;28;20032;-57
2022/03/03 06:48:49;;;;;;;69.18;25.60;;;;;;;;;;5060136;28;20028;-57
2022/03/03 06:51:15;;;;;;;57.42;24.80;;;;;;;;;;5068648;28;20391;-57
2022/03/03 06:53:44;;;;;;;61.13;24.77;;;;;;;;;;5068424;28;20025;-57
2022/03/03 06:56:12;;;;;;;69.25;26.17;;;;;;;;;;5067532;28;20064;-57
2022/03/03 06:58:38;;;;;;;68.40;26.77;;;;;;;;;;5058933;28;20055;-57
2022/03/03 07:01:07;;;;;;;64.35;25.92;;;;;;;;;;5061335;28;20036;-57
2022/03/03 07:03:33;;;;;;;70.32;24.58;;;;;;;;;;5063161;28;20392;-57
2022/03/03 07:06:00;;;;;;;75.53;25.60;;;;;;;;;;5060499;28;20017;-57
2022/03/03 07:08:26;;;;;;;74.28;26.90;;;;;;;;;;5062086;28;20512;-57
2022/03/03 07:10:52;;;;;;;66.55;26.17;;;;;;;;;;5064536;28;20020;-55
2022/03/03 07:13:18;;;;;;;61.28;25.05;;;;;;;;;;5063766;28;20506;-58
2022/03/03 07:15:55;;;;;;;64.57;23.88;;;;;;;;;;5065092;28;20017;-55
2022/03/03 07:18:27;;;;;;;62.55;23.58;;;;;;;;;;5061793;28;20070;-56
2022/03/03 07:20:59;;;;;;;71.50;25.48;;;;;;;;;;5063351;28;20029;-56
2022/03/03 07:23:39;;;;;;;69.93;24.58;;;;;;;;;;5055917;28;20028;-55
2022/03/03 07:26:08;;;;;;;63.20;24.95;;;;;;;;;;5059985;28;20384;-57
2022/03/03 07:28:38;;;;;;;62.63;24.85;;;;;;;;;;5062776;28;20362;-58
2022/03/03 07:31:03;;;;;;;57.72;24.05;;;;;;;;;;5058855;28;20059;-59
2022/03/03 07:33:41;;;;;;;64.15;25.88;;;;;;;;;;5065085;28;20036;-57
2022/03/03 07:36:09;;;;;;;63.05;22.83;;;;;;;;;;5060798;28;20044;-57
2022/03/03 07:38:37;;;;;;;66.80;26.42;;;;;;;;;;5057270;28;20064;-58
2022/03/03 07:41:03;;;;;;;67.13;25.10;;;;;;;;;;5058373;28;20029;-57
2022/03/03 07:43:28;;;;;;;61.63;24.13;;;;;;;;;;5063499;28;20316;-55
2022/03/03 07:45:54;;;;;;;59.20;23.10;;;;;;;;;;5062725;28;20511;-55
2022/03/03 07:48:22;;;;;;;60.72;23.33;;;;;;;;;;5063995;28;20036;-55
2022/03/03 07:50:48;;;;;;;64.63;23.75;;;;;;;;;;5061513;28;20492;-54
2022/03/03 07:53:14;;;;;;;71.82;27.50;;;;;;;;;;5062396;28;20062;-55
2022/03/03 07:55:55;;;;;;;76.38;29.80;;;;;;;;;;5055778;28;20029;-55
2022/03/03 07:58:26;;;;;;;68.32;27.15;;;;;;;;;;5066285;28;20048;-54
2022/03/03 08:00:57;;;;;;;66.88;26.73;;;;;;;;;;5063491;28;20043;-55
2022/03/03 08:03:23;;;;;;;75.65;28.30;;;;;;;;;;5056981;28;20446;-55
2022/03/03 08:05:51;;;;;;;73.13;29.58;;;;;;;;;;5066028;28;20025;-54
2022/03/03 08:08:21;;;;;;;82.45;30.65;;;;;;;;;;5069504;28;20444;-53
2022/03/03 08:10:47;;;;;;;80.07;30.80;;;;;;;;;;5069989;28;20051;-55
2022/03/03 08:13:17;;;;;;;78.43;30.95;;;;;;;;;;5066887;28;20032;-57
2022/03/03 08:15:44;;;;;;;68.97;30.73;;;;;;;;;;5063148;28;20032;-56
2022/03/03 08:18:11;;;;;;;82.47;32.40;;;;;;;;;;5067619;28;20432;-56
2022/03/03 08:20:38;;;;;;;82.85;30.83;;;;;;;;;;5068360;28;20033;-57
2022/03/03 08:23:05;;;;;;;86.65;31.75;;;;;;;;;;5064832;28;20036;-57
2022/03/03 08:25:32;;;;;;;78.93;31.23;;;;;;;;;;5060192;28;20024;-57
2022/03/03 08:27:58;;;;;;;75.50;29.88;;;;;;;;;;5066352;28;20044;-57
2022/03/03 08:30:24;;;;;;;82.18;30.75;;;;;;;;;;5067768;28;20033;-57
2022/03/03 08:33:16;;;;;;;95.75;35.42;;;;;;;;;;5061999;28;20635;-57
2022/03/03 08:35:48;;;;;;;94.38;34.55;;;;;;;;;;5060972;28;20104;-57
2022/03/03 08:38:17;;;;;;;70.55;29.95;;;;;;;;;;5065285;28;20040;-56
2022/03/03 08:40:45;;;;;;;78.18;29.30;;;;;;;;;;5063117;28;20025;-56
2022/03/03 08:43:13;;;;;;;76.80;29.58;;;;;;;;;;5054953;28;20040;-56
2022/03/03 08:45:39;;;;;;;76.38;30.67;;;;;;;;;;5062383;28;20035;-57
2022/03/03 08:48:08;;;;;;;73.20;28.27;;;;;;;;;;5065443;28;20047;-56
2022/03/03 08:50:37;;;;;;;77.57;29.80;;;;;;;;;;5055191;28;20079;-56
2022/03/03 08:53:04;;;;;;;66.60;29.08;;;;;;;;;;5063231;28;20103;-56
2022/03/03 08:55:30;;;;;;;64.82;27.55;;;;;;;;;;5066306;28;20017;-56
2022/03/03 08:57:58;;;;;;;83.25;31.50;;;;;;;;;;5065627;28;20025;-57
2022/03/03 09:00:23;;;;;;;70.38;28.42;;;;;;;;;;5057573;28;20063;-57
2022/03/03 09:02:50;;;;;;;66.13;27.38;;;;;;;;;;5065709;28;20457;-57
2022/03/03 09:05:16;;;;;;;65.13;27.77;;;;;;;;;;5055633;28;20043;-56
2022/03/03 09:07:42;;;;;;;58.75;27.48;;;;;;;;;;5055759;28;20033;-57
2022/03/03 09:10:08;;;;;;;60.90;26.70;;;;;;;;;;5059670;28;20395;-57
2022/03/03 09:12:34;;;;;;;68.30;26.50;;;;;;;;;;5060688;28;20033;-57
2022/03/03 09:14:59;;;;;;;60.58;26.88;;;;;;;;;;5061934;28;20066;-57
2022/03/03 09:17:25;;;;;;;60.25;26.42;;;;;;;;;;5064367;28;20052;-57
2022/03/03 09:19:51;;;;;;;59.85;27.75;;;;;;;;;;5060699;28;20078;-57
2022/03/03 09:22:16;;;;;;;51.22;25.83;;;;;;;;;;5058159;28;20098;-56
2022/03/03 09:24:42;;;;;;;54.80;25.17;;;;;;;;;;5062844;28;20028;-56
2022/03/03 09:27:08;;;;;;;51.28;23.67;;;;;;;;;;5064647;28;20050;-56
2022/03/03 09:29:34;;;;;;;48.38;22.90;;;;;;;;;;5064956;28;20040;-56
2022/03/03 09:32:01;;;;;;;50.65;23.35;;;;;;;;;;5058856;28;20033;-57
2022/03/03 09:34:28;;;;;;;46.90;23.63;;;;;;;;;;5065447;28;20199;-57
2022/03/03 09:36:54;;;;;;;46.22;23.42;;;;;;;;;;5064471;28;20431;-57
2022/03/03 09:39:20;;;;;;;42.50;22.35;;;;;;;;;;5058831;28;20028;-56
2022/03/03 09:41:45;;;;;;;44.92;24.13;;;;;;;;;;5061820;28;20108;-57
2022/03/03 09:44:13;;;;;;;44.92;23.00;;;;;;;;;;5065367;28;20023;-56
2022/03/03 09:46:39;;;;;;;45.42;23.83;;;;;;;;;;5064963;28;20052;-56
2022/03/03 09:49:04;;;;;;;50.00;23.42;;;;;;;;;;5062745;28;20033;-56
2022/03/03 09:51:30;;;;;;;39.15;18.88;;;;;;;;;;5062481;28;20135;-56
2022/03/03 09:53:56;;;;;;;40.50;21.88;;;;;;;;;;5064839;28;20036;-56
2022/03/03 09:56:22;;;;;;;46.70;22.77;;;;;;;;;;5065135;28;20016;-57
2022/03/03 09:58:47;;;;;;;50.03;25.65;;;;;;;;;;5063385;28;20119;-56
2022/03/03 10:01:13;;;;;;;43.95;24.20;;;;;;;;;;5052796;28;20031;-57
2022/03/03 10:03:39;;;;;;;42.83;22.55;;;;;;;;;;5057764;28;20041;-57
2022/03/03 10:06:05;;;;;;;43.95;23.17;;;;;;;;;;5066195;28;20415;-57
2022/03/03 10:08:31;;;;;;;44.85;24.02;;;;;;;;;;5063470;28;20111;-57
2022/03/03 10:11:01;;;;;;;42.10;22.70;;;;;;;;;;5061888;28;20127;-57
2022/03/03 10:13:42;;;;;;;46.67;24.73;;;;;;;;;;5066924;28;20090;-57
2022/03/03 10:16:08;;;;;;;42.47;24.95;;;;;;;;;;5068438;28;20086;-57
2022/03/03 10:18:33;;;;;;;40.50;23.38;;;;;;;;;;5061189;28;20434;-57
2022/03/03 10:21:02;;;;;;;38.53;22.23;;;;;;;;;;5057398;28;20044;-57
2022/03/03 10:23:30;;;;;;;45.45;23.40;;;;;;;;;;5064412;28;20016;-57
2022/03/03 10:25:58;;;;;;;42.72;23.30;;;;;;;;;;5059073;28;20115;-57
2022/03/03 10:28:29;;;;;;;39.45;23.38;;;;;;;;;;5058941;28;20020;-57
2022/03/03 10:31:06;;;;;;;43.63;24.50;;;;;;;;;;5065206;28;20119;-57
2022/03/03 10:33:53;;;;;;;52.35;26.50;;;;;;;;;;5059439;28;20091;-57
2022/03/03 10:36:26;;;;;;;47.08;25.60;;;;;;;;;;5067012;28;20523;-57
2022/03/03 10:38:56;;;;;;;38.55;22.30;;;;;;;;;;5063506;28;20024;-57
2022/03/03 10:41:42;;;;;;;41.22;22.95;;;;;;;;;;5068073;28;20078;-58
2022/03/03 10:44:22;;;;;;;41.75;24.25;;;;;;;;;;5067237;28;20060;-58
2022/03/03 10:47:07;;;;;;;42.25;24.48;;;;;;;;;;5065989;28;20036;-58
2022/03/03 10:49:34;;;;;;;43.60;23.92;;;;;;;;;;5061985;28;20503;-58
2022/03/03 10:52:15;;;;;;;43.28;23.27;;;;;;;;;;5064836;28;20040;-58
2022/03/03 10:55:00;;;;;;;40.47;23.60;;;;;;;;;;5066049;28;20095;-58
2022/03/03 10:57:31;;;;;;;43.97;24.63;;;;;;;;;;5065596;28;20021;-58
2022/03/03 10:59:59;;;;;;;40.65;23.73;;;;;;;;;;5057406;28;20032;-58
2022/03/03 11:02:28;;;;;;;40.60;20.88;;;;;;;;;;5062590;28;20278;-58
2022/03/03 11:04:55;;;;;;;36.78;20.40;;;;;;;;;;5071854;28;20044;-58
2022/03/03 11:07:22;;;;;;;44.20;21.70;;;;;;;;;;5066282;28;20023;-59
2022/03/03 11:09:49;;;;;;;37.78;21.25;;;;;;;;;;5070636;28;20406;-58
2022/03/03 11:12:16;;;;;;;33.30;19.92;;;;;;;;;;5068756;28;20025;-58
2022/03/03 11:14:42;;;;;;;39.63;20.90;;;;;;;;;;5070038;28;20210;-58
2022/03/03 11:17:09;;;;;;;41.40;21.85;;;;;;;;;;5067165;28;20452;-59
2022/03/03 11:19:35;;;;;;;45.30;23.73;;;;;;;;;;5068859;28;20448;-58
2022/03/03 11:22:01;;;;;;;40.50;21.77;;;;;;;;;;5066080;28;20021;-59
2022/03/03 11:24:28;;;;;;;40.15;22.80;;;;;;;;;;5066289;28;20376;-58
2022/03/03 11:26:54;;;;;;;41.33;22.50;;;;;;;;;;5067073;28;20036;-59
2022/03/03 11:29:20;;;;;;;40.97;23.50;;;;;;;;;;5067205;28;20416;-59
2022/03/03 11:32:07;;;;;;;39.80;22.98;;;;;;;;;;5064627;28;20093;-58
2022/03/03 11:34:35;;;;;;;42.65;22.85;;;;;;;;;;5050930;28;20083;-59
2022/03/03 11:37:15;;;;;;;41.25;22.48;;;;;;;;;;5068283;28;20070;-59
2022/03/03 11:39:52;;;;;;;40.15;22.63;;;;;;;;;;5065253;28;20051;-59
2022/03/03 11:42:35;;;;;;;41.17;22.48;;;;;;;;;;5066659;28;20070;-59
2022/03/03 11:45:06;;;;;;;44.08;23.92;;;;;;;;;;5067858;28;20388;-59
2022/03/03 11:47:34;;;;;;;43.45;23.98;;;;;;;;;;5063144;28;20047;-59
2022/03/03 11:50:19;;;;;;;46.55;24.40;;;;;;;;;;5066917;28;20071;-59
2022/03/03 11:52:57;;;;;;;41.92;23.85;;;;;;;;;;5067136;28;20103;-59
2022/03/03 11:55:22;;;;;;;43.63;23.50;;;;;;;;;;5064977;28;20021;-59
2022/03/03 11:57:47;;;;;;;41.55;24.05;;;;;;;;;;5062833;28;20078;-59
2022/03/03 12:00:18;;;;;;;42.05;23.02;;;;;;;;;;5066743;28;20535;-59
2022/03/03 12:02:54;;;;;;;43.60;22.67;;;;;;;;;;5066751;28;20575;-59
2022/03/03 12:05:28;;;;;;;44.60;23.00;;;;;;;;;;5066736;28;20056;-59
2022/03/03 12:08:16;;;;;;;41.95;21.08;;;;;;;;;;5067007;28;20100;-59
2022/03/03 12:11:03;;;;;;;38.92;19.77;;;;;;;;;;5069163;28;20169;-59
2022/03/03 12:13:49;;;;;;;41.60;20.27;;;;;;;;;;5067027;28;20021;-59
2022/03/03 12:16:33;;;;;;;36.38;18.30;;;;;;;;;;5066367;28;20033;-60
2022/03/03 12:18:58;;;;;;;36.13;19.48;;;;;;;;;;5064820;28;20032;-59
2022/03/03 12:21:40;;;;;;;37.20;19.98;;;;;;;;;;5067330;28;20117;-59
2022/03/03 12:24:14;;;;;;;47.95;22.73;;;;;;;;;;5067207;28;20027;-59
2022/03/03 12:26:54;;;;;;;47.83;24.25;;;;;;;;;;5065304;28;20043;-59
2022/03/03 12:29:35;;;;;;;45.92;25.13;;;;;;;;;;5064817;28;20028;-60
2022/03/03 12:32:26;;;;;;;45.30;23.52;;;;;;;;;;5065408;28;20035;-60
2022/03/03 12:34:53;;;;;;;43.40;24.13;;;;;;;;;;5062397;28;20219;-61
2022/03/03 12:37:18;;;;;;;45.85;25.33;;;;;;;;;;5064636;28;20027;-59
2022/03/03 12:39:52;;;;;;;39.60;22.02;;;;;;;;;;5065699;28;20107;-59
2022/03/03 12:42:19;;;;;;;41.33;22.23;;;;;;;;;;5065857;28;20033;-59
2022/03/03 12:44:52;;;;;;;39.03;21.95;;;;;;;;;;5063562;28;20051;-60
2022/03/03 12:47:34;;;;;;;44.40;22.55;;;;;;;;;;5064965;28;20016;-60
2022/03/03 12:50:11;;;;;;;40.28;23.67;;;;;;;;;;5066071;28;20028;-60
2022/03/03 12:52:38;;;;;;;44.72;23.33;;;;;;;;;;5062763;28;20033;-60
2022/03/03 12:55:06;;;;;;;46.15;24.90;;;;;;;;;;5065920;28;20028;-60
2022/03/03 12:57:38;;;;;;;43.08;23.75;;;;;;;;;;5064842;28;20031;-60
2022/03/03 13:00:14;;;;;;;45.22;24.35;;;;;;;;;;5056746;28;20031;-60
2022/03/03 13:02:51;;;;;;;45.80;25.63;;;;;;;;;;5067415;28;20024;-60
2022/03/03 13:05:35;;;;;;;42.67;24.52;;;;;;;;;;5068765;28;20044;-60
2022/03/03 13:08:02;;;;;;;43.10;23.38;;;;;;;;;;5061479;28;20390;-60
2022/03/03 13:10:28;;;;;;;35.40;21.83;;;;;;;;;;5067972;28;20016;-60
2022/03/03 13:12:55;;;;;;;43.28;22.60;;;;;;;;;;5067593;28;20032;-58
2022/03/03 13:15:33;;;;;;;43.35;23.63;;;;;;;;;;5067207;28;20108;-58
2022/03/03 13:18:23;;;;;;;87.90;37.85;;;;;;;;;;5062635;28;20115;-59
2022/03/03 13:21:05;;;;;;;64.70;31.23;;;;;;;;;;5062391;28;20028;-59
2022/03/03 13:23:31;;;;;;;51.00;27.33;;;;;;;;;;5066100;28;20441;-58
2022/03/03 13:26:09;;;;;;;46.05;24.85;;;;;;;;;;5062598;28;20065;-58
2022/03/03 13:28:49;;;;;;;45.53;26.17;;;;;;;;;;5058640;28;20555;-58
2022/03/03 13:31:17;;;;;;;42.45;24.35;;;;;;;;;;5065110;28;20305;-60
2022/03/03 13:34:03;;;;;;;40.90;23.35;;;;;;;;;;5063452;28;20031;-59
2022/03/03 13:36:36;;;;;;;48.97;26.65;;;;;;;;;;5057493;28;20054;-59
2022/03/03 13:39:06;;;;;;;54.38;27.52;;;;;;;;;;5064244;28;20039;-59
2022/03/03 13:41:36;;;;;;;42.90;23.90;;;;;;;;;;5063190;28;20024;-59
2022/03/03 13:44:24;;;;;;;43.00;22.67;;;;;;;;;;5064984;28;20028;-59
2022/03/03 13:46:58;;;;;;;46.28;23.08;;;;;;;;;;5064565;28;20111;-59
2022/03/03 13:49:24;;;;;;;40.10;22.30;;;;;;;;;;5060622;28;20037;-61
2022/03/03 13:52:03;;;;;;;40.17;21.05;;;;;;;;;;5060758;28;20466;-59
2022/03/03 13:54:42;;;;;;;35.78;19.30;;;;;;;;;;5058028;28;20064;-60
2022/03/03 13:57:07;;;;;;;37.63;19.50;;;;;;;;;;5057831;28;20216;-59
2022/03/03 13:59:53;;;;;;;35.30;18.60;;;;;;;;;;5060026;28;20036;-59
2022/03/03 14:02:18;;;;;;;33.72;20.15;;;;;;;;;;5058507;28;20409;-59
2022/03/03 14:05:02;;;;;;;67.50;29.95;;;;;;;;;;5058986;28;20017;-58
2022/03/03 14:07:28;;;;;;;40.88;21.00;;;;;;;;;;5065370;28;20029;-59
2022/03/03 14:09:58;;;;;;;37.95;21.77;;;;;;;;;;5064625;28;20048;-59
2022/03/03 14:12:24;;;;;;;41.63;22.92;;;;;;;;;;5059287;28;20032;-59
2022/03/03 14:14:50;;;;;;;45.50;25.17;;;;;;;;;;5062101;28;20032;-60
2022/03/03 14:17:15;;;;;;;41.03;22.27;;;;;;;;;;5067812;28;20039;-59
2022/03/03 14:19:43;;;;;;;46.42;26.83;;;;;;;;;;5065728;28;20032;-59
2022/03/03 14:22:09;;;;;;;39.83;23.73;;;;;;;;;;5063908;28;20431;-59
2022/03/03 14:24:36;;;;;;;40.47;22.45;;;;;;;;;;5058501;28;20032;-59
2022/03/03 14:27:03;;;;;;;39.85;22.15;;;;;;;;;;5061893;28;20033;-59
2022/03/03 14:29:28;;;;;;;43.38;23.17;;;;;;;;;;5059818;28;20024;-59